createdAt,value
2022-11-16T00:00:45.805Z,28.63
2022-11-16T00:06:09.431Z,30.23
2022-11-16T00:11:31.365Z,28.17
2022-11-16T00:16:53.294Z,24.88
2022-11-16T00:22:15.096Z,26.73
2022-11-16T00:27:36.905Z,28.73
2022-11-16T00:33:05.650Z,26.25
2022-11-16T00:38:27.726Z,24.85
2022-11-16T00:43:49.619Z,26.52
2022-11-16T00:49:11.479Z,24.73
2022-11-16T00:54:33.285Z,24.83
2022-11-16T00:59:55.173Z,24.73
2022-11-16T01:05:17.115Z,26.30
2022-11-16T01:10:40.638Z,23.15
2022-11-16T01:16:02.449Z,24.92
2022-11-16T01:21:24.700Z,24.02
2022-11-16T01:26:46.632Z,22.00
2022-11-16T01:32:08.471Z,25.13
2022-11-16T01:37:30.258Z,27.10
2022-11-16T01:42:52.065Z,24.70
2022-11-16T01:48:24.085Z,23.77
2022-11-16T01:53:46.185Z,25.42
2022-11-16T01:59:08.500Z,22.17
2022-11-16T02:04:30.410Z,23.50
2022-11-16T02:10:10.496Z,20.15
2022-11-16T02:16:05.168Z,22.10
2022-11-16T02:21:40.900Z,22.98
2022-11-16T02:27:21.373Z,20.90
2022-11-16T02:32:56.701Z,22.42
2022-11-16T02:38:23.611Z,21.30
2022-11-16T02:43:50.427Z,22.90
2022-11-16T02:49:17.713Z,21.92
2022-11-16T02:54:39.507Z,22.45
2022-11-16T03:00:04.415Z,20.33
2022-11-16T03:05:48.151Z,24.13
2022-11-16T03:11:11.302Z,21.65
2022-11-16T03:16:43.645Z,24.55
2022-11-16T03:22:24.669Z,23.83
2022-11-16T03:27:58.623Z,22.80
2022-11-16T03:33:28.114Z,26.08
2022-11-16T03:38:51.875Z,23.48
2022-11-16T03:44:16.695Z,23.35
2022-11-16T03:49:38.503Z,26.92
2022-11-16T03:55:00.295Z,26.83
2022-11-16T04:00:22.065Z,28.25
2022-11-16T04:05:43.931Z,29.95
2022-11-16T04:11:05.962Z,28.73
2022-11-16T04:16:27.726Z,24.65
2022-11-16T04:22:06.985Z,28.13
2022-11-16T04:27:30.431Z,27.88
2022-11-16T04:32:52.286Z,27.80
2022-11-16T04:38:14.684Z,30.50
2022-11-16T04:43:36.467Z,28.70
2022-11-16T04:48:58.260Z,29.00
2022-11-16T04:54:20.132Z,31.63
2022-11-16T04:59:41.909Z,29.98
2022-11-16T05:05:04.323Z,28.90
2022-11-16T05:10:26.181Z,31.33
2022-11-16T05:15:47.925Z,30.45
2022-11-16T05:21:09.717Z,32.08
2022-11-16T05:26:31.482Z,31.45
2022-11-16T05:31:53.279Z,33.80
2022-11-16T05:37:15.996Z,31.35
2022-11-16T05:42:37.739Z,29.05
2022-11-16T05:47:59.468Z,31.40
2022-11-16T05:53:21.295Z,31.10
2022-11-16T05:58:44.216Z,29.58
2022-11-16T06:04:06.261Z,28.00
2022-11-16T06:09:28.092Z,28.33
2022-11-16T06:14:49.927Z,26.58
2022-11-16T06:20:12.153Z,29.23
2022-11-16T06:25:33.967Z,29.67
2022-11-16T06:30:56.193Z,26.98
2022-11-16T06:36:18.046Z,23.42
2022-11-16T06:41:41.487Z,29.45
2022-11-16T06:47:03.722Z,27.45
2022-11-16T06:52:25.563Z,28.50
2022-11-16T06:57:47.356Z,25.58
2022-11-16T07:03:09.477Z,29.73
2022-11-16T07:08:31.593Z,28.83
2022-11-16T07:13:53.576Z,26.65
2022-11-16T07:19:15.410Z,31.00
2022-11-16T07:24:37.215Z,26.55
2022-11-16T07:29:58.994Z,27.30
2022-11-16T07:35:20.755Z,26.10
2022-11-16T07:40:42.535Z,27.92
2022-11-16T07:51:51.968Z,28.02
2022-11-16T07:57:13.762Z,27.80
2022-11-16T08:02:35.539Z,27.98
2022-11-16T08:07:57.326Z,30.95
2022-11-16T08:13:19.108Z,27.40
2022-11-16T08:18:41.408Z,26.38
2022-11-16T08:24:03.490Z,25.10
2022-11-16T08:29:26.357Z,21.38
2022-11-16T08:34:48.220Z,17.30
2022-11-16T08:40:10.664Z,17.85
2022-11-16T08:45:32.702Z,17.45
2022-11-16T08:51:16.536Z,18.40
2022-11-16T08:56:36.402Z,13.27
2022-11-16T09:01:58.226Z,14.13
2022-11-16T09:07:21.153Z,10.82
2022-11-16T09:12:43.368Z,9.15
2022-11-16T09:18:05.241Z,9.65
2022-11-16T09:23:27.579Z,9.35
2022-11-16T09:28:57.330Z,11.00
2022-11-16T09:34:19.118Z,8.60
2022-11-16T09:39:40.926Z,10.63
2022-11-16T09:45:27.287Z,9.02
2022-11-16T09:56:24.836Z,9.85
2022-11-16T10:02:21.100Z,7.20
2022-11-16T10:13:45.738Z,7.15
2022-11-16T10:19:07.480Z,9.25
2022-11-16T10:24:32.008Z,7.28
2022-11-16T10:30:12.848Z,8.20
2022-11-16T10:35:39.147Z,7.32
2022-11-16T10:41:26.647Z,9.13
2022-11-16T10:47:04.564Z,6.30
2022-11-16T10:52:26.806Z,6.93
2022-11-16T10:58:03.823Z,6.93
2022-11-16T11:03:35.007Z,6.55
2022-11-16T11:09:15.465Z,5.85
2022-11-16T11:14:37.276Z,6.20
2022-11-16T11:20:05.575Z,5.97
2022-11-16T11:25:31.799Z,7.88
2022-11-16T11:31:11.489Z,5.15
2022-11-16T11:36:42.933Z,4.47
2022-11-16T11:42:12.141Z,4.95
2022-11-16T11:47:57.954Z,4.75
2022-11-16T11:53:45.915Z,5.93
2022-11-16T11:59:11.638Z,4.45
2022-11-16T12:04:36.187Z,4.93
2022-11-16T12:10:04.042Z,2.70
2022-11-16T12:15:39.635Z,2.92
2022-11-16T12:21:12.597Z,6.00
2022-11-16T12:26:43.142Z,3.20
2022-11-16T12:32:22.374Z,3.75
2022-11-16T12:38:10.378Z,13.77
2022-11-16T12:43:47.486Z,9.63
2022-11-16T12:49:40.557Z,9.73
2022-11-16T12:55:29.467Z,5.20
2022-11-16T13:01:14.704Z,3.88
2022-11-16T13:06:48.530Z,3.45
2022-11-16T13:12:15.115Z,4.38
2022-11-16T13:23:21.163Z,6.60
2022-11-16T13:28:50.051Z,7.70
2022-11-16T13:34:23.553Z,6.45
2022-11-16T13:39:57.549Z,6.20
2022-11-16T13:45:21.957Z,6.88
2022-11-16T13:50:50.104Z,5.47
2022-11-16T13:56:12.349Z,9.60
2022-11-16T14:01:59.081Z,7.00
2022-11-16T14:07:35.816Z,7.65
2022-11-16T14:12:58.592Z,5.07
2022-11-16T14:18:20.330Z,6.65
2022-11-16T14:24:17.685Z,7.22
2022-11-16T14:29:48.456Z,8.25
2022-11-16T14:35:22.426Z,5.43
2022-11-16T14:40:57.760Z,10.02
2022-11-16T14:46:24.984Z,4.65
2022-11-16T14:51:51.455Z,4.85
2022-11-16T15:02:40.220Z,4.20
2022-11-16T15:08:06.593Z,3.30
2022-11-16T15:13:28.556Z,3.40
2022-11-16T15:19:01.348Z,3.80
2022-11-16T15:24:32.531Z,3.50
2022-11-16T15:29:54.532Z,4.28
2022-11-16T15:35:32.533Z,3.90
2022-11-16T15:41:02.385Z,5.28
2022-11-16T15:46:29.505Z,3.97
2022-11-16T15:51:51.297Z,4.43
2022-11-16T15:57:13.394Z,4.45
2022-11-16T16:02:35.437Z,3.78
2022-11-16T16:07:57.300Z,4.75
2022-11-16T16:13:40.031Z,4.32
2022-11-16T16:19:23.097Z,3.55
2022-11-16T16:24:46.732Z,4.50
2022-11-16T16:30:13.343Z,6.90
2022-11-16T16:35:35.130Z,4.55
2022-11-16T16:41:02.538Z,3.33
2022-11-16T16:46:24.367Z,3.92
2022-11-16T16:51:46.159Z,3.60
2022-11-16T16:57:13.497Z,3.22
2022-11-16T17:02:37.304Z,3.33
2022-11-16T17:07:59.539Z,5.53
2022-11-16T17:13:21.341Z,3.40
2022-11-16T17:18:43.179Z,3.72
2022-11-16T17:24:05.450Z,6.05
2022-11-16T17:29:27.231Z,6.80
2022-11-16T17:34:49.080Z,5.20
2022-11-16T17:40:11.154Z,4.28
2022-11-16T17:45:32.928Z,5.15
2022-11-16T17:50:54.695Z,4.55
2022-11-16T17:56:22.090Z,5.70
2022-11-16T18:01:43.967Z,4.88
2022-11-16T18:07:05.912Z,4.63
2022-11-16T18:12:27.780Z,5.05
2022-11-16T18:17:50.093Z,4.78
2022-11-16T18:23:11.882Z,4.25
2022-11-16T18:28:33.688Z,4.10
2022-11-16T18:33:55.738Z,3.22
2022-11-16T18:39:17.571Z,3.70
2022-11-16T18:44:39.350Z,3.85
2022-11-16T18:50:01.172Z,2.88
2022-11-16T18:55:23.208Z,4.78
2022-11-16T19:00:45.211Z,4.22
2022-11-16T19:06:08.444Z,3.72
2022-11-16T19:11:30.220Z,3.85
2022-11-16T19:16:56.925Z,4.38
2022-11-16T19:22:19.181Z,4.85
2022-11-16T19:27:40.998Z,4.57
2022-11-16T19:33:02.876Z,4.22
2022-11-16T19:38:24.722Z,5.70
2022-11-16T19:43:46.932Z,4.63
2022-11-16T19:49:08.680Z,7.85
2022-11-16T19:54:30.496Z,6.18
2022-11-16T19:59:52.276Z,7.55
2022-11-16T20:05:14.082Z,8.13
2022-11-16T20:10:35.872Z,7.68
2022-11-16T20:16:01.294Z,9.18
2022-11-16T20:21:27.978Z,9.27
2022-11-16T20:26:49.780Z,7.13
2022-11-16T20:32:11.541Z,8.55
2022-11-16T20:37:33.336Z,8.80
2022-11-16T20:42:55.089Z,8.10
2022-11-16T20:48:16.866Z,12.35
2022-11-16T20:53:38.699Z,9.05
2022-11-16T20:59:00.548Z,8.88
2022-11-16T21:04:22.338Z,10.35
2022-11-16T21:09:44.132Z,12.00
2022-11-16T21:15:06.256Z,10.02
2022-11-16T21:20:28.724Z,8.52
2022-11-16T21:25:50.675Z,9.05
2022-11-16T21:31:15.574Z,9.40
2022-11-16T21:36:37.373Z,9.45
2022-11-16T21:41:59.129Z,8.30
2022-11-16T21:47:21.180Z,9.02
2022-11-16T21:52:44.183Z,7.10
2022-11-16T21:58:05.960Z,7.60
2022-11-16T22:03:29.769Z,6.95
2022-11-16T22:08:51.786Z,8.02
2022-11-16T22:14:13.606Z,6.47
2022-11-16T22:19:35.388Z,6.60
2022-11-16T22:24:57.197Z,4.95
2022-11-16T22:30:19.681Z,5.07
2022-11-16T22:35:41.472Z,6.28
2022-11-16T22:41:03.895Z,5.20
2022-11-16T22:46:26.339Z,5.72
2022-11-16T22:51:48.217Z,4.25
2022-11-16T22:57:10.036Z,4.05
2022-11-16T23:02:31.816Z,5.40
2022-11-16T23:07:56.080Z,5.82
2022-11-16T23:13:17.849Z,4.82
2022-11-16T23:18:39.632Z,4.13
2022-11-16T23:24:01.449Z,4.18
2022-11-16T23:29:23.291Z,4.13
2022-11-16T23:34:45.101Z,3.90
2022-11-16T23:40:07.387Z,4.15
2022-11-16T23:45:29.319Z,5.88
2022-11-16T23:50:51.112Z,3.38
2022-11-16T23:56:12.919Z,3.90
